sensor_id;sensor_type;location;lat;lon;timestamp;P1;durP1;ratioP1;P2;durP2;ratioP2
19804;SDS011;10062;51.052;13.756;2022-07-06T00:00:35;7.07;;;2.10;;
19804;SDS011;10062;51.052;13.756;2022-07-06T00:03:06;4.37;;;1.77;;
19804;SDS011;10062;51.052;13.756;2022-07-06T00:05:38;3.83;;;2.07;;
19804;SDS011;10062;51.052;13.756;2022-07-06T00:08:10;5.87;;;2.20;;
19804;SDS011;10062;51.052;13.756;2022-07-06T00:10:43;4.03;;;1.80;;
19804;SDS011;10062;51.052;13.756;2022-07-06T00:13:14;2.90;;;1.70;;
19804;SDS011;10062;51.052;13.756;2022-07-06T00:15:46;4.80;;;1.50;;
19804;SDS011;10062;51.052;13.756;2022-07-06T00:18:18;6.17;;;2.37;;
19804;SDS011;10062;51.052;13.756;2022-07-06T00:20:50;4.37;;;2.33;;
19804;SDS011;10062;51.052;13.756;2022-07-06T00:23:21;4.47;;;2.40;;
19804;SDS011;10062;51.052;13.756;2022-07-06T00:25:55;5.83;;;2.43;;
19804;SDS011;10062;51.052;13.756;2022-07-06T00:28:26;4.77;;;1.93;;
19804;SDS011;10062;51.052;13.756;2022-07-06T00:30:58;4.00;;;1.83;;
19804;SDS011;10062;51.052;13.756;2022-07-06T00:33:30;5.20;;;2.40;;
19804;SDS011;10062;51.052;13.756;2022-07-06T00:36:02;5.10;;;2.10;;
19804;SDS011;10062;51.052;13.756;2022-07-06T00:38:34;4.00;;;2.40;;
19804;SDS011;10062;51.052;13.756;2022-07-06T00:41:09;2.90;;;1.90;;
19804;SDS011;10062;51.052;13.756;2022-07-06T00:43:47;3.80;;;2.30;;
19804;SDS011;10062;51.052;13.756;2022-07-06T00:46:20;4.57;;;2.10;;
19804;SDS011;10062;51.052;13.756;2022-07-06T00:48:55;4.03;;;2.10;;
19804;SDS011;10062;51.052;13.756;2022-07-06T00:51:28;4.97;;;1.87;;
19804;SDS011;10062;51.052;13.756;2022-07-06T00:54:02;3.67;;;2.00;;
19804;SDS011;10062;51.052;13.756;2022-07-06T00:56:36;5.53;;;2.03;;
19804;SDS011;10062;51.052;13.756;2022-07-06T00:59:08;4.37;;;2.17;;
19804;SDS011;10062;51.052;13.756;2022-07-06T01:01:40;5.23;;;2.30;;
19804;SDS011;10062;51.052;13.756;2022-07-06T01:04:12;3.73;;;1.93;;
19804;SDS011;10062;51.052;13.756;2022-07-06T01:06:43;4.67;;;2.50;;
19804;SDS011;10062;51.052;13.756;2022-07-06T01:09:17;4.47;;;2.20;;
19804;SDS011;10062;51.052;13.756;2022-07-06T01:11:50;5.13;;;2.43;;
19804;SDS011;10062;51.052;13.756;2022-07-06T01:14:24;7.67;;;2.33;;
19804;SDS011;10062;51.052;13.756;2022-07-06T01:16:55;6.43;;;2.67;;
19804;SDS011;10062;51.052;13.756;2022-07-06T01:19:27;4.50;;;2.33;;
19804;SDS011;10062;51.052;13.756;2022-07-06T01:22:00;6.03;;;2.60;;
19804;SDS011;10062;51.052;13.756;2022-07-06T01:24:34;6.17;;;2.93;;
19804;SDS011;10062;51.052;13.756;2022-07-06T01:27:07;4.90;;;2.80;;
19804;SDS011;10062;51.052;13.756;2022-07-06T01:29:39;5.30;;;2.30;;
19804;SDS011;10062;51.052;13.756;2022-07-06T01:32:10;3.53;;;2.50;;
19804;SDS011;10062;51.052;13.756;2022-07-06T01:34:42;4.70;;;2.20;;
19804;SDS011;10062;51.052;13.756;2022-07-06T01:37:15;4.10;;;2.50;;
19804;SDS011;10062;51.052;13.756;2022-07-06T01:39:47;5.20;;;2.27;;
19804;SDS011;10062;51.052;13.756;2022-07-06T01:42:18;4.83;;;2.53;;
19804;SDS011;10062;51.052;13.756;2022-07-06T01:44:50;4.47;;;2.13;;
19804;SDS011;10062;51.052;13.756;2022-07-06T01:47:22;5.13;;;3.00;;
19804;SDS011;10062;51.052;13.756;2022-07-06T01:49:57;3.30;;;2.07;;
19804;SDS011;10062;51.052;13.756;2022-07-06T01:52:31;4.57;;;2.30;;
19804;SDS011;10062;51.052;13.756;2022-07-06T01:55:05;6.20;;;3.00;;
19804;SDS011;10062;51.052;13.756;2022-07-06T01:57:39;5.50;;;2.23;;
19804;SDS011;10062;51.052;13.756;2022-07-06T02:00:14;4.73;;;2.40;;
19804;SDS011;10062;51.052;13.756;2022-07-06T02:02:51;4.03;;;2.47;;
19804;SDS011;10062;51.052;13.756;2022-07-06T02:05:22;4.23;;;2.50;;
19804;SDS011;10062;51.052;13.756;2022-07-06T02:07:55;6.63;;;3.10;;
19804;SDS011;10062;51.052;13.756;2022-07-06T02:10:27;5.53;;;2.43;;
19804;SDS011;10062;51.052;13.756;2022-07-06T02:12:59;6.40;;;2.70;;
19804;SDS011;10062;51.052;13.756;2022-07-06T02:15:31;5.40;;;3.13;;
19804;SDS011;10062;51.052;13.756;2022-07-06T02:18:02;9.83;;;3.27;;
19804;SDS011;10062;51.052;13.756;2022-07-06T02:20:34;5.30;;;2.93;;
19804;SDS011;10062;51.052;13.756;2022-07-06T02:23:07;8.33;;;2.70;;
19804;SDS011;10062;51.052;13.756;2022-07-06T02:25:39;7.03;;;2.70;;
19804;SDS011;10062;51.052;13.756;2022-07-06T02:28:11;4.60;;;2.70;;
19804;SDS011;10062;51.052;13.756;2022-07-06T02:30:45;3.40;;;2.30;;
19804;SDS011;10062;51.052;13.756;2022-07-06T02:33:16;5.23;;;3.03;;
19804;SDS011;10062;51.052;13.756;2022-07-06T02:35:49;5.80;;;2.63;;
19804;SDS011;10062;51.052;13.756;2022-07-06T02:38:22;5.10;;;2.37;;
19804;SDS011;10062;51.052;13.756;2022-07-06T02:40:54;5.77;;;2.70;;
19804;SDS011;10062;51.052;13.756;2022-07-06T02:43:26;4.57;;;2.47;;
19804;SDS011;10062;51.052;13.756;2022-07-06T02:45:58;5.47;;;2.77;;
19804;SDS011;10062;51.052;13.756;2022-07-06T02:48:31;6.93;;;2.60;;
19804;SDS011;10062;51.052;13.756;2022-07-06T02:51:02;7.57;;;2.87;;
19804;SDS011;10062;51.052;13.756;2022-07-06T02:53:35;9.03;;;2.97;;
19804;SDS011;10062;51.052;13.756;2022-07-06T02:56:07;6.30;;;2.67;;
19804;SDS011;10062;51.052;13.756;2022-07-06T02:58:39;3.87;;;2.37;;
19804;SDS011;10062;51.052;13.756;2022-07-06T03:01:12;8.17;;;3.03;;
19804;SDS011;10062;51.052;13.756;2022-07-06T03:03:43;5.07;;;2.97;;
19804;SDS011;10062;51.052;13.756;2022-07-06T03:06:15;4.90;;;2.60;;
19804;SDS011;10062;51.052;13.756;2022-07-06T03:08:49;5.00;;;2.77;;
19804;SDS011;10062;51.052;13.756;2022-07-06T03:11:20;7.10;;;3.40;;
19804;SDS011;10062;51.052;13.756;2022-07-06T03:13:52;3.80;;;2.60;;
19804;SDS011;10062;51.052;13.756;2022-07-06T03:16:24;4.57;;;3.10;;
19804;SDS011;10062;51.052;13.756;2022-07-06T03:18:56;5.90;;;2.80;;
19804;SDS011;10062;51.052;13.756;2022-07-06T03:21:28;6.60;;;3.03;;
19804;SDS011;10062;51.052;13.756;2022-07-06T03:24:01;5.17;;;2.77;;
19804;SDS011;10062;51.052;13.756;2022-07-06T03:26:33;5.70;;;3.00;;
19804;SDS011;10062;51.052;13.756;2022-07-06T03:29:05;5.00;;;3.43;;
19804;SDS011;10062;51.052;13.756;2022-07-06T03:31:37;5.20;;;2.87;;
19804;SDS011;10062;51.052;13.756;2022-07-06T03:34:09;5.27;;;2.87;;
19804;SDS011;10062;51.052;13.756;2022-07-06T03:36:41;4.93;;;2.70;;
19804;SDS011;10062;51.052;13.756;2022-07-06T03:39:14;11.00;;;4.07;;
19804;SDS011;10062;51.052;13.756;2022-07-06T03:41:46;5.67;;;3.10;;
19804;SDS011;10062;51.052;13.756;2022-07-06T03:44:18;6.63;;;3.10;;
19804;SDS011;10062;51.052;13.756;2022-07-06T03:46:50;5.03;;;3.10;;
19804;SDS011;10062;51.052;13.756;2022-07-06T03:49:25;6.83;;;2.63;;
19804;SDS011;10062;51.052;13.756;2022-07-06T03:51:58;4.83;;;3.03;;
19804;SDS011;10062;51.052;13.756;2022-07-06T03:54:34;4.63;;;2.80;;
19804;SDS011;10062;51.052;13.756;2022-07-06T03:57:08;4.67;;;3.30;;
19804;SDS011;10062;51.052;13.756;2022-07-06T03:59:41;13.23;;;3.20;;
19804;SDS011;10062;51.052;13.756;2022-07-06T04:02:14;8.77;;;3.40;;
19804;SDS011;10062;51.052;13.756;2022-07-06T04:04:46;6.73;;;3.33;;
19804;SDS011;10062;51.052;13.756;2022-07-06T04:07:18;6.83;;;3.00;;
19804;SDS011;10062;51.052;13.756;2022-07-06T04:09:52;9.20;;;3.73;;
19804;SDS011;10062;51.052;13.756;2022-07-06T04:12:25;5.87;;;3.40;;
19804;SDS011;10062;51.052;13.756;2022-07-06T04:14:57;5.10;;;3.40;;
19804;SDS011;10062;51.052;13.756;2022-07-06T04:17:29;5.70;;;3.30;;
19804;SDS011;10062;51.052;13.756;2022-07-06T04:20:18;5.53;;;3.67;;
19804;SDS011;10062;51.052;13.756;2022-07-06T04:22:51;5.40;;;3.63;;
19804;SDS011;10062;51.052;13.756;2022-07-06T04:25:26;7.93;;;4.27;;
19804;SDS011;10062;51.052;13.756;2022-07-06T04:28:02;12.23;;;6.13;;
19804;SDS011;10062;51.052;13.756;2022-07-06T04:30:36;6.93;;;3.87;;
19804;SDS011;10062;51.052;13.756;2022-07-06T04:33:10;6.37;;;4.13;;
19804;SDS011;10062;51.052;13.756;2022-07-06T04:35:43;10.93;;;6.33;;
19804;SDS011;10062;51.052;13.756;2022-07-06T04:38:15;15.27;;;10.77;;
19804;SDS011;10062;51.052;13.756;2022-07-06T04:40:49;7.20;;;4.20;;
19804;SDS011;10062;51.052;13.756;2022-07-06T04:43:22;9.17;;;5.40;;
19804;SDS011;10062;51.052;13.756;2022-07-06T04:45:54;6.43;;;4.07;;
19804;SDS011;10062;51.052;13.756;2022-07-06T04:48:26;7.03;;;3.90;;
19804;SDS011;10062;51.052;13.756;2022-07-06T04:50:58;5.67;;;3.27;;
19804;SDS011;10062;51.052;13.756;2022-07-06T04:53:32;17.40;;;3.77;;
19804;SDS011;10062;51.052;13.756;2022-07-06T04:56:05;6.13;;;3.70;;
19804;SDS011;10062;51.052;13.756;2022-07-06T04:58:41;5.30;;;3.40;;
19804;SDS011;10062;51.052;13.756;2022-07-06T05:01:17;6.83;;;3.20;;
19804;SDS011;10062;51.052;13.756;2022-07-06T05:03:49;7.53;;;3.30;;
19804;SDS011;10062;51.052;13.756;2022-07-06T05:06:24;5.23;;;3.40;;
19804;SDS011;10062;51.052;13.756;2022-07-06T05:08:56;5.47;;;3.23;;
19804;SDS011;10062;51.052;13.756;2022-07-06T05:11:31;8.23;;;3.50;;
19804;SDS011;10062;51.052;13.756;2022-07-06T05:14:03;7.70;;;3.27;;
19804;SDS011;10062;51.052;13.756;2022-07-06T05:16:35;9.07;;;4.10;;
19804;SDS011;10062;51.052;13.756;2022-07-06T05:19:07;6.50;;;3.93;;
19804;SDS011;10062;51.052;13.756;2022-07-06T05:21:39;11.80;;;3.30;;
19804;SDS011;10062;51.052;13.756;2022-07-06T05:24:12;6.30;;;3.03;;
19804;SDS011;10062;51.052;13.756;2022-07-06T05:26:46;6.97;;;3.40;;
19804;SDS011;10062;51.052;13.756;2022-07-06T05:29:20;5.97;;;3.47;;
19804;SDS011;10062;51.052;13.756;2022-07-06T05:31:52;6.30;;;2.87;;
19804;SDS011;10062;51.052;13.756;2022-07-06T05:34:23;4.90;;;2.80;;
19804;SDS011;10062;51.052;13.756;2022-07-06T05:36:55;8.10;;;2.90;;
19804;SDS011;10062;51.052;13.756;2022-07-06T05:39:27;8.53;;;3.10;;
19804;SDS011;10062;51.052;13.756;2022-07-06T05:42:00;15.10;;;4.70;;
19804;SDS011;10062;51.052;13.756;2022-07-06T05:44:32;6.70;;;3.43;;
19804;SDS011;10062;51.052;13.756;2022-07-06T05:47:04;4.80;;;3.03;;
19804;SDS011;10062;51.052;13.756;2022-07-06T05:49:53;8.13;;;3.40;;
19804;SDS011;10062;51.052;13.756;2022-07-06T05:52:54;5.97;;;3.37;;
19804;SDS011;10062;51.052;13.756;2022-07-06T05:55:27;8.17;;;3.37;;
19804;SDS011;10062;51.052;13.756;2022-07-06T05:58:02;7.60;;;2.90;;
19804;SDS011;10062;51.052;13.756;2022-07-06T06:00:36;14.60;;;3.03;;
19804;SDS011;10062;51.052;13.756;2022-07-06T06:03:14;6.30;;;2.70;;
19804;SDS011;10062;51.052;13.756;2022-07-06T06:05:46;8.93;;;2.80;;
19804;SDS011;10062;51.052;13.756;2022-07-06T06:08:21;5.90;;;2.63;;
19804;SDS011;10062;51.052;13.756;2022-07-06T06:10:54;6.93;;;2.63;;
19804;SDS011;10062;51.052;13.756;2022-07-06T06:13:29;7.63;;;2.73;;
19804;SDS011;10062;51.052;13.756;2022-07-06T06:16:01;6.93;;;2.73;;
19804;SDS011;10062;51.052;13.756;2022-07-06T06:18:33;10.47;;;2.70;;
19804;SDS011;10062;51.052;13.756;2022-07-06T06:21:04;5.97;;;2.10;;
19804;SDS011;10062;51.052;13.756;2022-07-06T06:23:36;4.13;;;2.60;;
19804;SDS011;10062;51.052;13.756;2022-07-06T06:26:08;6.50;;;3.37;;
19804;SDS011;10062;51.052;13.756;2022-07-06T06:28:41;4.30;;;2.43;;
19804;SDS011;10062;51.052;13.756;2022-07-06T06:31:12;4.00;;;2.30;;
19804;SDS011;10062;51.052;13.756;2022-07-06T06:33:44;6.40;;;2.50;;
19804;SDS011;10062;51.052;13.756;2022-07-06T06:36:16;5.57;;;2.50;;
19804;SDS011;10062;51.052;13.756;2022-07-06T06:38:48;5.97;;;2.57;;
19804;SDS011;10062;51.052;13.756;2022-07-06T06:41:20;4.87;;;2.07;;
19804;SDS011;10062;51.052;13.756;2022-07-06T06:43:53;4.30;;;2.30;;
19804;SDS011;10062;51.052;13.756;2022-07-06T06:46:28;5.30;;;2.37;;
19804;SDS011;10062;51.052;13.756;2022-07-06T06:48:59;3.83;;;1.90;;
19804;SDS011;10062;51.052;13.756;2022-07-06T06:51:31;4.47;;;2.00;;
19804;SDS011;10062;51.052;13.756;2022-07-06T06:54:03;5.97;;;2.03;;
19804;SDS011;10062;51.052;13.756;2022-07-06T06:56:35;5.63;;;2.00;;
19804;SDS011;10062;51.052;13.756;2022-07-06T06:59:08;2.60;;;1.50;;
19804;SDS011;10062;51.052;13.756;2022-07-06T07:01:40;6.37;;;2.00;;
19804;SDS011;10062;51.052;13.756;2022-07-06T07:04:11;5.40;;;2.03;;
19804;SDS011;10062;51.052;13.756;2022-07-06T07:06:43;6.77;;;2.03;;
19804;SDS011;10062;51.052;13.756;2022-07-06T07:09:15;6.40;;;2.07;;
19804;SDS011;10062;51.052;13.756;2022-07-06T07:11:46;5.03;;;1.60;;
19804;SDS011;10062;51.052;13.756;2022-07-06T07:14:19;5.40;;;1.63;;
19804;SDS011;10062;51.052;13.756;2022-07-06T07:16:51;4.57;;;1.70;;
19804;SDS011;10062;51.052;13.756;2022-07-06T07:19:23;12.27;;;2.10;;
19804;SDS011;10062;51.052;13.756;2022-07-06T07:21:54;6.17;;;1.90;;
19804;SDS011;10062;51.052;13.756;2022-07-06T07:24:26;4.03;;;2.03;;
19804;SDS011;10062;51.052;13.756;2022-07-06T07:26:58;7.67;;;2.20;;
19804;SDS011;10062;51.052;13.756;2022-07-06T07:29:31;4.07;;;1.60;;
19804;SDS011;10062;51.052;13.756;2022-07-06T07:32:03;5.90;;;1.67;;
19804;SDS011;10062;51.052;13.756;2022-07-06T07:34:34;5.50;;;1.73;;
19804;SDS011;10062;51.052;13.756;2022-07-06T07:37:06;5.23;;;1.43;;
19804;SDS011;10062;51.052;13.756;2022-07-06T07:39:38;8.43;;;1.60;;
19804;SDS011;10062;51.052;13.756;2022-07-06T07:42:09;5.67;;;1.57;;
19804;SDS011;10062;51.052;13.756;2022-07-06T07:44:42;6.10;;;2.13;;
19804;SDS011;10062;51.052;13.756;2022-07-06T07:47:14;6.43;;;1.70;;
19804;SDS011;10062;51.052;13.756;2022-07-06T07:49:46;2.47;;;1.30;;
19804;SDS011;10062;51.052;13.756;2022-07-06T07:52:17;4.67;;;1.43;;
19804;SDS011;10062;51.052;13.756;2022-07-06T07:54:49;1.87;;;1.20;;
19804;SDS011;10062;51.052;13.756;2022-07-06T07:57:21;6.20;;;1.60;;
19804;SDS011;10062;51.052;13.756;2022-07-06T07:59:54;2.20;;;1.17;;
19804;SDS011;10062;51.052;13.756;2022-07-06T08:02:25;3.97;;;1.43;;
19804;SDS011;10062;51.052;13.756;2022-07-06T08:04:57;2.83;;;1.30;;
19804;SDS011;10062;51.052;13.756;2022-07-06T08:07:29;5.67;;;1.50;;
19804;SDS011;10062;51.052;13.756;2022-07-06T08:10:00;6.10;;;1.60;;
19804;SDS011;10062;51.052;13.756;2022-07-06T08:12:32;3.17;;;1.07;;
19804;SDS011;10062;51.052;13.756;2022-07-06T08:15:06;5.40;;;1.60;;
19804;SDS011;10062;51.052;13.756;2022-07-06T08:17:38;9.83;;;1.50;;
19804;SDS011;10062;51.052;13.756;2022-07-06T08:20:10;8.47;;;1.20;;
19804;SDS011;10062;51.052;13.756;2022-07-06T08:22:43;4.37;;;1.20;;
19804;SDS011;10062;51.052;13.756;2022-07-06T08:25:14;3.97;;;1.10;;
19804;SDS011;10062;51.052;13.756;2022-07-06T08:27:47;5.20;;;1.67;;
19804;SDS011;10062;51.052;13.756;2022-07-06T08:30:21;10.23;;;1.10;;
19804;SDS011;10062;51.052;13.756;2022-07-06T08:32:53;1.87;;;0.97;;
19804;SDS011;10062;51.052;13.756;2022-07-06T08:35:24;4.47;;;1.33;;
19804;SDS011;10062;51.052;13.756;2022-07-06T08:37:56;2.53;;;1.10;;
19804;SDS011;10062;51.052;13.756;2022-07-06T08:40:30;4.67;;;1.50;;
19804;SDS011;10062;51.052;13.756;2022-07-06T08:43:04;3.03;;;1.40;;
19804;SDS011;10062;51.052;13.756;2022-07-06T08:45:37;3.93;;;1.00;;
19804;SDS011;10062;51.052;13.756;2022-07-06T08:48:10;3.30;;;1.37;;
19804;SDS011;10062;51.052;13.756;2022-07-06T08:50:43;6.23;;;1.60;;
19804;SDS011;10062;51.052;13.756;2022-07-06T08:53:15;5.33;;;1.30;;
19804;SDS011;10062;51.052;13.756;2022-07-06T08:55:48;2.90;;;1.20;;
19804;SDS011;10062;51.052;13.756;2022-07-06T08:58:22;3.10;;;1.27;;
19804;SDS011;10062;51.052;13.756;2022-07-06T09:00:57;4.97;;;1.50;;
19804;SDS011;10062;51.052;13.756;2022-07-06T09:03:28;9.33;;;1.40;;
19804;SDS011;10062;51.052;13.756;2022-07-06T09:06:01;6.70;;;1.80;;
19804;SDS011;10062;51.052;13.756;2022-07-06T09:08:33;5.60;;;2.70;;
19804;SDS011;10062;51.052;13.756;2022-07-06T09:11:06;7.40;;;1.77;;
19804;SDS011;10062;51.052;13.756;2022-07-06T09:13:38;2.77;;;1.13;;
19804;SDS011;10062;51.052;13.756;2022-07-06T09:16:11;4.93;;;1.20;;
19804;SDS011;10062;51.052;13.756;2022-07-06T09:18:44;5.77;;;1.43;;
19804;SDS011;10062;51.052;13.756;2022-07-06T09:21:22;3.27;;;1.10;;
19804;SDS011;10062;51.052;13.756;2022-07-06T09:23:54;7.17;;;1.10;;
19804;SDS011;10062;51.052;13.756;2022-07-06T09:26:26;3.17;;;0.97;;
19804;SDS011;10062;51.052;13.756;2022-07-06T09:28:58;5.83;;;1.70;;
19804;SDS011;10062;51.052;13.756;2022-07-06T09:31:31;5.13;;;1.20;;
19804;SDS011;10062;51.052;13.756;2022-07-06T09:34:04;4.40;;;1.60;;
19804;SDS011;10062;51.052;13.756;2022-07-06T09:36:37;8.20;;;1.87;;
19804;SDS011;10062;51.052;13.756;2022-07-06T09:39:20;4.53;;;1.42;;
19804;SDS011;10062;51.052;13.756;2022-07-06T09:41:54;1.93;;;1.00;;
19804;SDS011;10062;51.052;13.756;2022-07-06T09:44:26;2.80;;;1.20;;
19804;SDS011;10062;51.052;13.756;2022-07-06T09:47:02;2.83;;;1.13;;
19804;SDS011;10062;51.052;13.756;2022-07-06T09:49:35;4.15;;;1.30;;
19804;SDS011;10062;51.052;13.756;2022-07-06T09:52:08;4.35;;;1.30;;
19804;SDS011;10062;51.052;13.756;2022-07-06T09:54:41;3.38;;;1.02;;
19804;SDS011;10062;51.052;13.756;2022-07-06T09:57:13;3.42;;;1.38;;
19804;SDS011;10062;51.052;13.756;2022-07-06T09:59:49;3.15;;;1.15;;
19804;SDS011;10062;51.052;13.756;2022-07-06T10:02:23;3.75;;;1.20;;
19804;SDS011;10062;51.052;13.756;2022-07-06T10:04:57;4.13;;;1.15;;
19804;SDS011;10062;51.052;13.756;2022-07-06T10:07:28;7.93;;;1.33;;
19804;SDS011;10062;51.052;13.756;2022-07-06T10:10:01;2.40;;;1.02;;
19804;SDS011;10062;51.052;13.756;2022-07-06T10:12:33;4.07;;;1.27;;
19804;SDS011;10062;51.052;13.756;2022-07-06T10:15:06;4.18;;;1.38;;
19804;SDS011;10062;51.052;13.756;2022-07-06T10:17:39;3.50;;;1.17;;
19804;SDS011;10062;51.052;13.756;2022-07-06T10:20:12;4.38;;;1.30;;
19804;SDS011;10062;51.052;13.756;2022-07-06T10:22:44;4.82;;;1.50;;
19804;SDS011;10062;51.052;13.756;2022-07-06T10:25:17;3.53;;;1.30;;
19804;SDS011;10062;51.052;13.756;2022-07-06T10:27:50;4.07;;;1.40;;
19804;SDS011;10062;51.052;13.756;2022-07-06T10:30:23;2.63;;;1.27;;
19804;SDS011;10062;51.052;13.756;2022-07-06T10:32:58;3.33;;;1.52;;
19804;SDS011;10062;51.052;13.756;2022-07-06T10:35:30;2.45;;;1.00;;
19804;SDS011;10062;51.052;13.756;2022-07-06T10:38:03;5.40;;;1.42;;
19804;SDS011;10062;51.052;13.756;2022-07-06T10:40:36;2.85;;;1.48;;
19804;SDS011;10062;51.052;13.756;2022-07-06T10:43:33;3.65;;;1.40;;
19804;SDS011;10062;51.052;13.756;2022-07-06T10:46:06;3.70;;;0.85;;
19804;SDS011;10062;51.052;13.756;2022-07-06T10:48:41;3.20;;;1.20;;
19804;SDS011;10062;51.052;13.756;2022-07-06T10:51:22;5.30;;;1.58;;
19804;SDS011;10062;51.052;13.756;2022-07-06T10:53:55;4.93;;;1.00;;
19804;SDS011;10062;51.052;13.756;2022-07-06T10:56:31;1.67;;;0.98;;
19804;SDS011;10062;51.052;13.756;2022-07-06T10:59:08;4.72;;;1.40;;
19804;SDS011;10062;51.052;13.756;2022-07-06T11:02:10;5.25;;;1.45;;
19804;SDS011;10062;51.052;13.756;2022-07-06T11:04:45;2.90;;;1.00;;
19804;SDS011;10062;51.052;13.756;2022-07-06T11:07:18;4.22;;;1.30;;
19804;SDS011;10062;51.052;13.756;2022-07-06T11:09:53;3.88;;;1.30;;
19804;SDS011;10062;51.052;13.756;2022-07-06T11:12:25;4.68;;;1.17;;
19804;SDS011;10062;51.052;13.756;2022-07-06T11:14:57;2.50;;;1.20;;
19804;SDS011;10062;51.052;13.756;2022-07-06T11:17:32;2.58;;;0.95;;
19804;SDS011;10062;51.052;13.756;2022-07-06T11:20:09;4.68;;;1.23;;
19804;SDS011;10062;51.052;13.756;2022-07-06T11:22:42;3.67;;;1.20;;
19804;SDS011;10062;51.052;13.756;2022-07-06T11:25:14;5.18;;;1.40;;
19804;SDS011;10062;51.052;13.756;2022-07-06T11:27:47;3.58;;;1.30;;
19804;SDS011;10062;51.052;13.756;2022-07-06T11:30:20;4.43;;;1.10;;
19804;SDS011;10062;51.052;13.756;2022-07-06T11:32:51;3.65;;;1.05;;
19804;SDS011;10062;51.052;13.756;2022-07-06T11:35:25;7.80;;;1.50;;
19804;SDS011;10062;51.052;13.756;2022-07-06T11:37:56;3.42;;;1.30;;
19804;SDS011;10062;51.052;13.756;2022-07-06T11:40:28;6.70;;;1.33;;
19804;SDS011;10062;51.052;13.756;2022-07-06T11:43:00;2.70;;;1.20;;
19804;SDS011;10062;51.052;13.756;2022-07-06T11:45:32;2.90;;;1.33;;
19804;SDS011;10062;51.052;13.756;2022-07-06T11:48:10;5.18;;;1.63;;
19804;SDS011;10062;51.052;13.756;2022-07-06T11:50:43;5.95;;;1.92;;
19804;SDS011;10062;51.052;13.756;2022-07-06T11:53:29;8.13;;;1.52;;
19804;SDS011;10062;51.052;13.756;2022-07-06T11:56:01;4.50;;;1.30;;
19804;SDS011;10062;51.052;13.756;2022-07-06T11:58:33;3.58;;;1.05;;
19804;SDS011;10062;51.052;13.756;2022-07-06T12:01:07;5.60;;;1.10;;
19804;SDS011;10062;51.052;13.756;2022-07-06T12:03:40;5.05;;;1.40;;
19804;SDS011;10062;51.052;13.756;2022-07-06T12:06:14;4.03;;;1.35;;
19804;SDS011;10062;51.052;13.756;2022-07-06T12:08:49;6.57;;;1.38;;
19804;SDS011;10062;51.052;13.756;2022-07-06T12:11:22;5.30;;;1.30;;
19804;SDS011;10062;51.052;13.756;2022-07-06T12:13:55;5.28;;;1.65;;
19804;SDS011;10062;51.052;13.756;2022-07-06T12:16:30;3.05;;;1.30;;
19804;SDS011;10062;51.052;13.756;2022-07-06T12:19:04;3.63;;;1.23;;
19804;SDS011;10062;51.052;13.756;2022-07-06T12:21:42;6.90;;;1.42;;
19804;SDS011;10062;51.052;13.756;2022-07-06T12:24:19;3.00;;;1.10;;
19804;SDS011;10062;51.052;13.756;2022-07-06T12:26:52;7.50;;;1.30;;
19804;SDS011;10062;51.052;13.756;2022-07-06T12:29:24;4.57;;;1.27;;
19804;SDS011;10062;51.052;13.756;2022-07-06T12:31:56;2.60;;;0.90;;
19804;SDS011;10062;51.052;13.756;2022-07-06T12:34:28;3.05;;;1.17;;
19804;SDS011;10062;51.052;13.756;2022-07-06T12:37:06;4.95;;;1.17;;
19804;SDS011;10062;51.052;13.756;2022-07-06T12:39:43;3.85;;;0.88;;
19804;SDS011;10062;51.052;13.756;2022-07-06T12:42:16;6.80;;;1.30;;
19804;SDS011;10062;51.052;13.756;2022-07-06T12:44:50;6.55;;;1.50;;
19804;SDS011;10062;51.052;13.756;2022-07-06T12:47:23;6.32;;;1.30;;
19804;SDS011;10062;51.052;13.756;2022-07-06T12:50:05;5.65;;;1.27;;
19804;SDS011;10062;51.052;13.756;2022-07-06T12:52:39;5.50;;;1.45;;
19804;SDS011;10062;51.052;13.756;2022-07-06T12:55:11;4.05;;;1.20;;
19804;SDS011;10062;51.052;13.756;2022-07-06T12:57:45;2.75;;;0.95;;
19804;SDS011;10062;51.052;13.756;2022-07-06T13:00:18;4.63;;;1.15;;
19804;SDS011;10062;51.052;13.756;2022-07-06T13:02:52;3.83;;;1.10;;
19804;SDS011;10062;51.052;13.756;2022-07-06T13:05:28;2.90;;;1.17;;
19804;SDS011;10062;51.052;13.756;2022-07-06T13:08:02;3.65;;;0.90;;
19804;SDS011;10062;51.052;13.756;2022-07-06T13:10:34;2.85;;;1.60;;
19804;SDS011;10062;51.052;13.756;2022-07-06T13:13:07;3.97;;;1.20;;
19804;SDS011;10062;51.052;13.756;2022-07-06T13:15:41;6.28;;;1.40;;
19804;SDS011;10062;51.052;13.756;2022-07-06T13:18:13;3.50;;;1.10;;
19804;SDS011;10062;51.052;13.756;2022-07-06T13:20:44;3.38;;;1.20;;
19804;SDS011;10062;51.052;13.756;2022-07-06T13:23:17;3.75;;;1.00;;
19804;SDS011;10062;51.052;13.756;2022-07-06T13:25:49;4.22;;;1.10;;
19804;SDS011;10062;51.052;13.756;2022-07-06T13:28:21;1.75;;;0.80;;
19804;SDS011;10062;51.052;13.756;2022-07-06T13:30:52;4.60;;;1.00;;
19804;SDS011;10062;51.052;13.756;2022-07-06T13:33:24;4.00;;;1.13;;
19804;SDS011;10062;51.052;13.756;2022-07-06T13:35:56;5.22;;;1.00;;
19804;SDS011;10062;51.052;13.756;2022-07-06T13:38:29;2.40;;;0.80;;
19804;SDS011;10062;51.052;13.756;2022-07-06T13:41:01;3.97;;;1.50;;
19804;SDS011;10062;51.052;13.756;2022-07-06T13:43:32;2.95;;;1.20;;
19804;SDS011;10062;51.052;13.756;2022-07-06T13:46:07;4.30;;;0.90;;
19804;SDS011;10062;51.052;13.756;2022-07-06T13:48:40;6.63;;;1.52;;
19804;SDS011;10062;51.052;13.756;2022-07-06T13:51:12;3.45;;;1.20;;
19804;SDS011;10062;51.052;13.756;2022-07-06T13:53:45;7.00;;;1.30;;
19804;SDS011;10062;51.052;13.756;2022-07-06T13:56:17;3.47;;;1.23;;
19804;SDS011;10062;51.052;13.756;2022-07-06T13:58:48;5.32;;;2.00;;
19804;SDS011;10062;51.052;13.756;2022-07-06T14:01:21;2.70;;;1.02;;
19804;SDS011;10062;51.052;13.756;2022-07-06T14:03:53;2.50;;;1.00;;
19804;SDS011;10062;51.052;13.756;2022-07-06T14:06:25;3.10;;;1.23;;
19804;SDS011;10062;51.052;13.756;2022-07-06T14:08:58;5.65;;;1.95;;
19804;SDS011;10062;51.052;13.756;2022-07-06T14:11:30;5.47;;;1.55;;
19804;SDS011;10062;51.052;13.756;2022-07-06T14:14:01;5.53;;;1.50;;
19804;SDS011;10062;51.052;13.756;2022-07-06T14:16:33;7.18;;;1.52;;
19804;SDS011;10062;51.052;13.756;2022-07-06T14:19:05;1.83;;;0.88;;
19804;SDS011;10062;51.052;13.756;2022-07-06T14:21:37;9.88;;;6.72;;
19804;SDS011;10062;51.052;13.756;2022-07-06T14:24:10;8.45;;;4.72;;
19804;SDS011;10062;51.052;13.756;2022-07-06T14:26:41;2.72;;;1.20;;
19804;SDS011;10062;51.052;13.756;2022-07-06T14:29:13;5.15;;;1.30;;
19804;SDS011;10062;51.052;13.756;2022-07-06T14:31:45;3.83;;;1.10;;
19804;SDS011;10062;51.052;13.756;2022-07-06T14:34:17;3.58;;;1.02;;
19804;SDS011;10062;51.052;13.756;2022-07-06T14:36:49;5.22;;;1.38;;
19804;SDS011;10062;51.052;13.756;2022-07-06T14:39:22;3.67;;;0.95;;
19804;SDS011;10062;51.052;13.756;2022-07-06T14:41:53;5.90;;;1.00;;
19804;SDS011;10062;51.052;13.756;2022-07-06T14:44:25;2.45;;;0.90;;
19804;SDS011;10062;51.052;13.756;2022-07-06T14:46:57;5.50;;;1.15;;
19804;SDS011;10062;51.052;13.756;2022-07-06T14:49:29;6.45;;;0.98;;
19804;SDS011;10062;51.052;13.756;2022-07-06T14:52:00;2.63;;;1.02;;
19804;SDS011;10062;51.052;13.756;2022-07-06T14:54:33;3.25;;;0.90;;
19804;SDS011;10062;51.052;13.756;2022-07-06T14:57:06;4.60;;;1.08;;
19804;SDS011;10062;51.052;13.756;2022-07-06T14:59:38;6.13;;;1.08;;
19804;SDS011;10062;51.052;13.756;2022-07-06T15:02:10;1.75;;;0.90;;
19804;SDS011;10062;51.052;13.756;2022-07-06T15:04:42;5.55;;;0.75;;
19804;SDS011;10062;51.052;13.756;2022-07-06T15:07:13;2.22;;;1.00;;